Time;durP1;ratioP1;P1;durP2;ratioP2;P2;SDS_P1;SDS_P2;PMS_P1;PMS_P2;Temp;Humidity;BMP_temperature;BMP_pressure;BME280_temperature;BME280_humidity;BME280_pressure;Samples;Min_cycle;Max_cycle;Signal;HPM_P1;HPM_P2
2020/12/04 00:00:12;;;;;;;2.17;1.98;;;4.00;92.90;;;7.48;76.59;98631.69;5012410;28;96864;-72
2020/12/04 00:02:40;;;;;;;1.65;1.48;;;4.00;92.80;;;7.42;76.91;98635.69;4990274;28;97920;-72
2020/12/04 00:05:08;;;;;;;3.15;2.10;;;4.00;92.90;;;7.48;77.26;98617.59;4988152;28;97626;-71
2020/12/04 00:07:36;;;;;;;0.43;0.43;;;4.00;92.90;;;7.46;76.81;98625.13;4978116;28;97151;-71
2020/12/04 00:10:06;;;;;;;1.67;1.55;;;4.00;92.90;;;7.41;77.77;98620.03;5003459;28;97353;-71
2020/12/04 00:12:33;;;;;;;1.40;1.30;;;4.00;92.80;;;7.45;77.64;98624.38;5012164;28;97745;-71
2020/12/04 00:15:02;;;;;;;0.93;0.85;;;4.00;92.90;;;7.51;77.16;98616.94;5024822;27;97693;-71
2020/12/04 00:17:31;;;;;;;2.38;1.65;;;4.10;92.90;;;7.49;76.86;98613.81;4992930;28;96745;-71
2020/12/04 00:19:59;;;;;;;0.40;0.40;;;4.00;92.90;;;7.45;77.28;98607.59;4997887;28;97209;-72
2020/12/04 00:22:32;;;;;;;1.20;0.30;;;4.00;92.90;;;7.44;77.18;98603.38;5005823;28;97490;-71
2020/12/04 00:24:59;;;;;;;14.45;2.05;;;4.00;92.90;;;7.40;77.22;98599.81;4993267;28;97466;-72
2020/12/04 00:27:30;;;;;;;5.07;1.38;;;4.00;92.80;;;7.43;77.21;98589.28;4995714;28;96729;-72
2020/12/04 00:29:57;;;;;;;2.63;1.52;;;4.00;92.80;;;7.44;76.67;98595.38;4986996;28;96627;-72
2020/12/04 00:32:25;;;;;;;2.17;1.02;;;4.00;92.80;;;7.38;77.36;98584.19;4996169;28;96897;-71
2020/12/04 00:34:52;;;;;;;0.57;0.57;;;4.00;92.80;;;7.38;76.66;98575.41;4995283;28;97694;-72
2020/12/04 00:37:21;;;;;;;7.65;1.85;;;4.00;92.80;;;7.37;77.19;98573.84;5008784;27;96755;-72
2020/12/04 00:39:49;;;;;;;1.15;0.88;;;4.00;92.80;;;7.40;77.39;98570.53;5035813;27;96819;-71
2020/12/04 00:42:16;;;;;;;1.95;1.42;;;4.00;92.80;;;7.40;77.18;98563.31;4989785;28;96817;-71
2020/12/04 00:44:44;;;;;;;8.68;1.85;;;4.00;92.80;;;7.49;75.79;98560.53;4989308;28;96732;-72
2020/12/04 00:47:12;;;;;;;4.53;1.42;;;4.00;92.80;;;7.39;76.78;98559.09;4974020;28;96858;-71
2020/12/04 00:49:40;;;;;;;1.67;1.45;;;4.00;92.90;;;7.42;76.59;98560.31;5016093;27;96898;-71
2020/12/04 00:52:08;;;;;;;1.38;1.27;;;4.00;92.90;;;7.39;76.58;98552.97;5024869;27;96875;-72
2020/12/04 00:54:36;;;;;;;2.05;1.25;;;3.90;93.10;;;7.41;76.49;98550.75;4971018;28;97995;-72
2020/12/04 00:57:08;;;;;;;2.80;1.13;;;3.90;92.90;;;7.41;76.31;98538.22;5001445;28;96753;-72
2020/12/04 00:59:44;;;;;;;0.25;0.25;;;3.90;92.90;;;7.37;76.24;98541.88;5006770;28;96788;-72
2020/12/04 01:02:12;;;;;;;1.45;1.33;;;3.90;92.90;;;7.38;77.50;98536.25;4991942;28;98939;-72
2020/12/04 01:04:40;;;;;;;2.95;1.80;;;3.90;92.90;;;7.42;76.08;98539.00;4991565;28;97025;-72
2020/12/04 01:07:07;;;;;;;1.45;0.93;;;3.90;92.90;;;7.37;77.08;98526.69;4997908;28;96717;-71
2020/12/04 01:09:37;;;;;;;1.70;1.60;;;3.90;92.90;;;7.34;77.03;98538.00;4997286;28;96812;-71
2020/12/04 01:12:05;;;;;;;1.65;1.40;;;3.90;92.90;;;7.40;77.16;98525.25;4997486;28;96620;-71
2020/12/04 01:14:33;;;;;;;1.25;1.13;;;3.90;92.90;;;7.40;76.57;98528.69;4976099;28;98033;-72
2020/12/04 01:17:05;;;;;;;4.22;1.85;;;3.90;92.90;;;7.45;76.59;98525.00;4982347;28;96733;-72
2020/12/04 01:19:32;;;;;;;1.48;1.38;;;3.90;92.90;;;7.40;76.78;98519.91;5012433;28;97300;-71
2020/12/04 01:22:00;;;;;;;1.58;1.48;;;3.90;92.90;;;7.32;76.86;98515.47;5004348;28;97949;-71
2020/12/04 01:24:31;;;;;;;4.07;1.92;;;3.90;92.90;;;7.32;76.87;98512.81;4995649;28;97719;-71
2020/12/04 01:27:00;;;;;;;1.02;1.02;;;3.90;92.90;;;7.34;77.42;98510.59;4982478;28;96726;-71
2020/12/04 01:29:31;;;;;;;1.17;1.17;;;3.90;92.90;;;7.35;77.04;98512.16;4987321;28;97406;-71
2020/12/04 01:31:59;;;;;;;1.48;1.38;;;3.90;93.00;;;7.35;76.62;98515.56;4988939;28;97427;-72
2020/12/04 01:34:30;;;;;;;2.17;0.90;;;3.90;93.00;;;7.42;76.72;98512.34;4996051;28;97703;-71
2020/12/04 01:36:58;;;;;;;1.17;1.10;;;3.90;92.90;;;7.39;76.50;98508.50;4990899;28;96705;-71
2020/12/04 01:39:25;;;;;;;0.55;0.40;;;3.90;92.90;;;7.36;77.19;98513.69;4986999;28;97158;-72
2020/12/04 01:41:53;;;;;;;0.85;0.85;;;3.90;92.90;;;7.41;76.62;98500.16;4994728;28;98109;-71
2020/12/04 01:44:21;;;;;;;1.35;1.25;;;3.90;92.90;;;7.46;76.81;98491.91;4985605;28;96752;-72
2020/12/04 01:46:50;;;;;;;0.28;0.28;;;3.90;92.90;;;7.36;76.36;98487.84;4985182;28;96798;-72
2020/12/04 01:49:18;;;;;;;1.67;0.88;;;3.90;92.90;;;7.39;76.98;98487.19;5005963;27;97411;-71
2020/12/04 01:51:48;;;;;;;2.63;1.35;;;3.90;92.90;;;7.42;76.36;98481.19;4982355;28;97687;-72
2020/12/04 01:54:19;;;;;;;1.17;1.00;;;3.90;93.00;;;7.40;76.05;98471.97;4986442;28;97707;-72
2020/12/04 01:56:48;;;;;;;1.42;1.33;;;3.90;92.90;;;7.42;76.06;98469.72;4993604;28;96773;-72
2020/12/04 01:59:16;;;;;;;0.85;0.85;;;3.90;92.90;;;7.42;76.45;98475.06;4996934;28;96845;-72
2020/12/04 02:01:48;;;;;;;0.75;0.63;;;3.90;92.90;;;7.42;76.72;98456.41;4994391;28;97511;-71
2020/12/04 02:04:15;;;;;;;3.03;1.77;;;3.90;92.90;;;7.40;76.58;98453.31;4976599;28;97629;-72
2020/12/04 02:06:54;;;;;;;4.57;2.38;;;3.90;92.90;;;7.41;76.55;98447.66;4986007;28;97147;-72
2020/12/04 02:09:29;;;;;;;3.45;2.58;;;3.90;93.00;;;7.42;76.68;98438.56;4994232;28;96682;-72
2020/12/04 02:12:02;;;;;;;1.13;1.13;;;3.90;92.90;;;7.42;76.71;98443.88;4999227;28;97950;-72
2020/12/04 02:14:33;;;;;;;1.90;1.48;;;3.90;92.90;;;7.43;76.59;98429.44;4990961;28;97669;-72
2020/12/04 02:17:05;;;;;;;1.70;0.70;;;3.90;92.90;;;7.39;76.79;98428.56;4979412;28;97145;-71
2020/12/04 02:19:36;;;;;;;3.50;2.30;;;3.90;92.90;;;7.37;76.60;98430.81;4985131;28;96990;-72
2020/12/04 02:22:06;;;;;;;2.45;1.88;;;3.90;92.90;;;7.42;76.76;98419.13;5019855;28;98088;-72
2020/12/04 02:24:34;;;;;;;0.93;0.65;;;3.90;92.90;;;7.43;76.67;98423.34;4989196;28;96878;-72
2020/12/04 02:27:08;;;;;;;1.75;1.65;;;3.90;92.90;;;7.44;76.40;98408.91;4983354;28;96748;-72
2020/12/04 02:29:39;;;;;;;1.13;1.08;;;3.90;92.90;;;7.42;76.52;98405.81;4986304;28;96669;-73
2020/12/04 02:32:11;;;;;;;0.77;0.77;;;3.90;93.20;;;7.42;76.27;98405.81;5014019;28;97805;-72
2020/12/04 02:34:40;;;;;;;3.10;1.35;;;3.90;92.90;;;7.47;76.87;98405.56;4996689;28;97737;-72
2020/12/04 02:37:09;;;;;;;0.35;0.35;;;3.90;93.00;;;7.46;76.77;98401.34;4995128;28;97147;-73
2020/12/04 02:39:38;;;;;;;0.85;0.85;;;3.90;92.90;;;7.35;76.80;98392.28;5017347;28;97492;-72
2020/12/04 02:42:05;;;;;;;2.00;1.67;;;3.90;93.00;;;7.41;76.24;98399.72;4981970;28;96830;-72
2020/12/04 02:44:33;;;;;;;0.50;0.50;;;3.90;93.00;;;7.40;76.83;98397.38;4999262;28;97811;-71
2020/12/04 02:47:02;;;;;;;4.20;1.45;;;3.90;93.00;;;7.43;76.59;98384.16;4999711;28;96722;-71
2020/12/04 02:49:30;;;;;;;1.20;0.93;;;3.90;93.00;;;7.47;76.00;98397.56;5025736;27;96804;-72
2020/12/04 02:51:58;;;;;;;2.38;0.95;;;3.90;93.00;;;7.53;75.95;98390.91;5023546;27;97042;-73
2020/12/04 02:54:26;;;;;;;1.65;1.27;;;3.90;93.00;;;7.50;76.65;98388.91;4996971;28;97660;-73
2020/12/04 02:56:54;;;;;;;2.03;1.27;;;3.90;93.00;;;7.48;75.67;98383.94;4998852;28;97186;-72
2020/12/04 02:59:22;;;;;;;1.38;1.27;;;3.90;93.00;;;7.55;75.94;98384.13;4998942;28;97417;-72
2020/12/04 03:01:50;;;;;;;3.20;0.98;;;3.90;93.00;;;7.52;76.36;98384.78;4993695;28;96781;-72
2020/12/04 03:04:17;;;;;;;1.33;1.23;;;3.90;93.00;;;7.42;76.38;98376.50;4994982;28;96663;-72
2020/12/04 03:06:45;;;;;;;0.85;0.85;;;3.90;93.00;;;7.46;76.03;98374.72;4992216;28;96751;-72
2020/12/04 03:09:12;;;;;;;0.80;0.80;;;4.00;93.00;;;7.55;76.27;98373.47;4994806;28;96938;-72
2020/12/04 03:11:41;;;;;;;1.20;1.10;;;4.00;93.00;;;7.53;76.80;98361.59;4995271;27;98045;-72
2020/12/04 03:14:09;;;;;;;1.98;1.83;;;4.00;93.00;;;7.56;76.50;98367.00;4990032;28;97263;-71
2020/12/04 03:16:36;;;;;;;2.67;2.00;;;4.00;93.00;;;7.60;76.46;98361.78;5019370;27;97251;-71
2020/12/04 03:19:05;;;;;;;0.80;0.80;;;4.00;93.00;;;7.56;76.37;98352.94;4999046;28;96688;-71
2020/12/04 03:21:33;;;;;;;8.85;0.63;;;4.00;93.00;;;7.53;76.55;98349.03;5018405;28;97037;-72
2020/12/04 03:24:02;;;;;;;3.00;1.52;;;4.00;93.00;;;7.57;76.41;98343.81;4985376;28;97681;-72
2020/12/04 03:26:31;;;;;;;1.45;1.33;;;4.10;93.00;;;7.60;76.71;98343.16;5000864;28;97121;-72
2020/12/04 03:28:59;;;;;;;6.93;1.58;;;4.00;93.00;;;7.55;76.71;98336.16;4999034;28;96671;-72
2020/12/04 03:31:31;;;;;;;0.52;0.52;;;4.00;93.00;;;7.58;77.25;98338.13;5010973;28;96809;-72
2020/12/04 03:33:59;;;;;;;1.40;1.02;;;4.10;93.00;;;7.51;76.41;98335.28;5007061;27;97998;-72
2020/12/04 03:36:31;;;;;;;0.77;0.77;;;4.00;93.00;;;7.55;77.05;98348.72;5030631;27;96729;-72
2020/12/04 03:38:59;;;;;;;1.75;1.58;;;4.10;93.00;;;7.60;77.06;98332.47;4996977;28;97017;-71
2020/12/04 03:41:30;;;;;;;4.40;1.38;;;4.10;93.00;;;7.69;76.43;98323.22;4988695;28;96682;-72
2020/12/04 03:43:58;;;;;;;1.40;1.30;;;4.10;93.00;;;7.60;76.81;98316.50;4992685;28;96755;-72
2020/12/04 03:46:26;;;;;;;0.47;0.47;;;4.10;93.00;;;7.66;76.36;98313.25;4983170;28;97187;-72
2020/12/04 03:48:53;;;;;;;3.47;1.13;;;4.10;93.00;;;7.71;76.05;98297.00;4999753;28;96711;-72
2020/12/04 03:51:21;;;;;;;0.80;0.80;;;4.10;93.00;;;7.72;75.91;98295.91;5007254;28;97808;-72
2020/12/04 03:53:48;;;;;;;3.10;1.95;;;4.10;93.00;;;7.76;76.18;98302.84;4993923;28;97702;-72
2020/12/04 03:56:16;;;;;;;2.47;1.42;;;4.10;93.00;;;7.82;75.45;98304.16;4992344;28;96613;-72
2020/12/04 03:58:44;;;;;;;2.58;1.30;;;4.20;93.00;;;7.78;76.00;98292.63;5002289;28;96704;-73
2020/12/04 04:01:13;;;;;;;1.52;1.42;;;4.20;93.00;;;7.76;76.37;98294.09;4995752;28;96840;-72
2020/12/04 04:03:40;;;;;;;0.45;0.45;;;4.20;93.00;;;7.81;76.44;98288.50;4995820;28;97642;-72
2020/12/04 04:06:08;;;;;;;2.30;2.03;;;4.20;93.00;;;7.75;76.00;98290.63;4996953;28;96736;-72
2020/12/04 04:08:35;;;;;;;1.10;0.93;;;4.20;93.00;;;7.86;75.80;98283.72;4986038;28;96816;-72
2020/12/04 04:11:05;;;;;;;0.73;0.73;;;4.20;93.00;;;7.86;75.48;98283.72;5006736;28;98297;-72
2020/12/04 04:13:32;;;;;;;1.75;1.15;;;4.20;93.00;;;7.92;75.58;98292.22;5004216;28;97692;-72
2020/12/04 04:16:00;;;;;;;1.13;1.00;;;4.20;93.00;;;7.95;75.32;98275.53;5008022;28;96912;-72
2020/12/04 04:18:33;;;;;;;1.23;1.13;;;4.20;93.00;;;7.96;75.94;98277.84;4993406;28;96577;-72
2020/12/04 04:21:07;;;;;;;0.82;0.75;;;4.20;93.00;;;7.83;75.89;98279.06;4982900;28;97978;-73
2020/12/04 04:23:35;;;;;;;0.47;0.47;;;4.20;93.00;;;7.83;76.53;98272.94;4995918;27;98056;-72
2020/12/04 04:26:04;;;;;;;4.93;2.20;;;4.20;93.00;;;7.84;76.09;98269.94;5023724;27;96830;-72
2020/12/04 04:28:32;;;;;;;4.32;1.25;;;4.30;93.00;;;7.92;76.01;98270.88;4994843;28;96680;-72
2020/12/04 04:30:59;;;;;;;0.85;0.85;;;4.20;93.00;;;7.82;76.24;98272.19;5024207;27;98142;-72
2020/12/04 04:33:30;;;;;;;0.40;0.40;;;4.30;93.00;;;7.83;77.20;98263.06;4997490;28;96749;-72
2020/12/04 04:36:00;;;;;;;1.20;1.10;;;4.30;93.00;;;7.91;76.45;98258.66;5017166;28;97111;-72
2020/12/04 04:38:32;;;;;;;1.00;1.00;;;4.30;93.00;;;7.88;75.97;98268.13;5012953;28;97003;-72
2020/12/04 04:40:59;;;;;;;1.52;1.27;;;4.30;93.00;;;7.93;76.51;98264.44;4995399;28;97679;-72
2020/12/04 04:43:30;;;;;;;1.23;0.75;;;4.30;93.00;;;7.95;75.87;98267.53;5006041;28;97111;-72
2020/12/04 04:46:19;;;;;;;2.55;1.30;;;4.30;93.00;;;7.93;76.08;98267.88;4993233;28;97052;-72
2020/12/04 04:48:54;;;;;;;1.40;1.30;;;4.40;93.00;;;7.97;76.15;98273.31;5021710;27;97124;-72
2020/12/04 04:51:24;;;;;;;0.57;0.57;;;4.40;93.00;;;7.96;76.35;98269.84;4958872;28;99178;-72
2020/12/04 04:53:58;;;;;;;1.63;1.00;;;4.40;93.00;;;7.93;76.66;98262.56;4987833;28;97821;-72
2020/12/04 04:56:26;;;;;;;4.88;0.88;;;4.40;93.00;;;7.96;76.23;98272.53;4995402;28;96777;-72
2020/12/04 04:58:54;;;;;;;0.47;0.47;;;4.40;93.00;;;7.99;76.21;98279.84;4992995;28;96890;-73
2020/12/04 05:01:21;;;;;;;1.02;0.65;;;4.40;93.00;;;8.03;76.18;98267.34;4991228;28;96648;-72
2020/12/04 05:03:58;;;;;;;0.25;0.25;;;4.40;93.00;;;8.08;75.70;98258.34;4995101;28;96705;-72
2020/12/04 05:06:35;;;;;;;0.17;0.17;;;4.40;93.00;;;8.05;76.54;98273.13;4989543;28;96677;-72
2020/12/04 05:09:06;;;;;;;0.52;0.52;;;4.50;93.00;;;8.04;76.35;98274.25;4962928;28;97317;-73
2020/12/04 05:11:35;;;;;;;1.40;1.05;;;4.40;93.00;;;8.06;76.08;98263.25;4989964;28;96776;-72
2020/12/04 05:14:16;;;;;;;0.65;0.63;;;4.40;93.00;;;8.08;76.42;98261.00;4984589;28;96693;-73
2020/12/04 05:16:45;;;;;;;0.85;0.60;;;4.50;93.00;;;8.10;76.06;98264.84;4986484;28;96780;-74
2020/12/04 05:19:13;;;;;;;1.00;1.00;;;4.50;93.00;;;8.12;76.00;98262.66;4988404;28;97084;-72
2020/12/04 05:21:42;;;;;;;1.45;1.20;;;4.50;93.00;;;8.18;76.23;98269.28;4986171;28;98015;-72
2020/12/04 05:24:09;;;;;;;0.60;0.60;;;4.50;93.10;;;8.14;75.93;98275.63;4988793;28;97834;-72
2020/12/04 05:26:38;;;;;;;1.00;0.90;;;4.50;93.00;;;8.12;76.15;98270.66;4988165;28;96791;-71
2020/12/04 05:29:06;;;;;;;0.52;0.52;;;4.50;93.00;;;8.07;76.36;98276.22;4984145;28;97036;-72
2020/12/04 05:31:36;;;;;;;0.52;0.52;;;4.50;93.00;;;8.06;76.79;98266.66;4986365;28;97772;-71
2020/12/04 05:34:23;;;;;;;2.00;0.65;;;4.50;93.00;;;8.10;76.29;98267.53;4977333;28;96700;-72
2020/12/04 05:36:51;;;;;;;0.77;0.77;;;4.50;93.00;;;8.16;75.75;98266.16;4988321;28;96776;-72
2020/12/04 05:39:19;;;;;;;0.60;0.60;;;4.50;93.00;;;8.22;75.98;98267.47;4974701;28;96910;-72
2020/12/04 05:41:49;;;;;;;1.38;0.63;;;4.60;93.00;;;8.18;76.26;98271.97;4986627;28;97843;-72
2020/12/04 05:44:18;;;;;;;2.67;0.75;;;4.60;93.00;;;8.19;75.89;98268.16;4992477;28;97326;-72
2020/12/04 05:46:53;;;;;;;0.70;0.70;;;4.60;93.00;;;8.11;76.74;98274.44;4976951;28;96599;-72
2020/12/04 05:49:21;;;;;;;1.02;0.95;;;4.60;93.00;;;8.08;76.52;98272.44;4978658;28;97020;-72
2020/12/04 05:51:53;;;;;;;1.17;0.85;;;4.60;93.00;;;8.06;77.14;98269.34;5001502;28;96660;-72
2020/12/04 05:54:23;;;;;;;1.15;1.05;;;4.60;93.00;;;8.08;76.68;98271.66;5026922;27;97825;-72
2020/12/04 05:56:54;;;;;;;0.43;0.43;;;4.60;93.00;;;8.11;77.28;98274.44;4980816;28;96551;-73
2020/12/04 05:59:23;;;;;;;1.20;1.15;;;4.60;93.00;;;8.07;76.90;98273.53;4977211;28;96673;-72
2020/12/04 06:01:51;;;;;;;2.10;1.20;;;4.60;93.30;;;8.08;77.11;98269.75;4992351;28;97764;-72
2020/12/04 06:04:19;;;;;;;1.13;0.77;;;4.70;93.10;;;8.15;77.18;98282.50;4980976;28;96778;-72
2020/12/04 06:06:50;;;;;;;0.60;0.60;;;4.70;93.30;;;8.16;76.31;98270.72;5006045;28;96673;-72
2020/12/04 06:09:22;;;;;;;0.45;0.45;;;4.70;93.10;;;8.17;76.69;98274.94;4997344;28;97247;-73
2020/12/04 06:11:50;;;;;;;0.40;0.40;;;4.70;93.10;;;8.20;76.88;98283.06;5008590;27;97812;-72
2020/12/04 06:14:21;;;;;;;0.35;0.35;;;4.70;93.10;;;8.19;77.09;98278.84;4992998;28;97017;-73
2020/12/04 06:17:11;;;;;;;0.93;0.93;;;4.70;93.10;;;8.23;76.66;98273.56;4985116;28;96655;-72
2020/12/04 06:19:41;;;;;;;0.47;0.47;;;4.70;93.10;;;8.23;76.69;98289.56;4980971;28;96986;-72
2020/12/04 06:22:11;;;;;;;0.75;0.63;;;4.70;93.00;;;8.21;77.12;98289.94;4987519;28;98172;-72
2020/12/04 06:25:04;;;;;;;0.20;0.20;;;4.80;93.10;;;8.32;76.89;98282.19;4984933;28;96906;-72
2020/12/04 06:27:43;;;;;;;0.47;0.47;;;4.80;93.10;;;8.40;76.37;98286.56;4970541;28;96785;-72
2020/12/04 06:30:13;;;;;;;0.73;0.73;;;4.80;93.10;;;8.40;75.83;98287.31;4997930;28;96825;-73
2020/12/04 06:32:44;;;;;;;1.85;0.95;;;4.80;93.00;;;8.44;76.37;98298.09;4986036;28;98079;-72
2020/12/04 06:35:14;;;;;;;0.25;0.25;;;4.80;93.00;;;8.45;75.94;98289.75;5006947;28;97052;-72
2020/12/04 06:37:45;;;;;;;3.55;0.32;;;4.80;93.00;;;8.41;76.38;98288.91;4986954;28;97100;-72
2020/12/04 06:40:28;;;;;;;0.25;0.25;;;4.80;93.00;;;8.41;76.46;98293.44;4990046;28;98016;-72
2020/12/04 06:42:58;;;;;;;0.85;0.50;;;4.80;93.00;;;8.40;76.49;98300.66;4992762;28;96642;-72
2020/12/04 06:45:47;;;;;;;0.70;0.70;;;4.80;93.00;;;8.46;76.22;98301.19;4985051;28;96777;-72
2020/12/04 06:48:17;;;;;;;1.08;1.02;;;4.80;93.00;;;8.52;76.15;98305.13;4989914;28;96786;-72
2020/12/04 06:50:48;;;;;;;0.52;0.52;;;4.90;93.10;;;8.48;76.71;98298.94;4991889;28;96920;-72
2020/12/04 06:53:16;;;;;;;0.55;0.47;;;4.90;93.10;;;8.52;76.44;98308.59;4994785;28;98879;-72
2020/12/04 06:55:50;;;;;;;1.65;0.60;;;4.90;93.10;;;8.59;76.08;98302.63;4986604;28;96775;-71
2020/12/04 06:58:18;;;;;;;3.08;1.58;;;4.90;93.10;;;8.51;76.33;98299.03;4987978;28;96874;-72
2020/12/04 07:00:46;;;;;;;0.70;0.70;;;5.00;93.10;;;8.53;76.70;98312.78;4996095;28;96794;-72
2020/12/04 07:03:17;;;;;;;0.68;0.68;;;5.00;93.10;;;8.52;76.51;98311.25;4982486;28;98147;-72
2020/12/04 07:05:45;;;;;;;0.38;0.38;;;5.00;93.10;;;8.57;76.63;98302.97;5032459;27;97745;-72
2020/12/04 07:08:12;;;;;;;0.20;0.20;;;5.00;93.00;;;8.58;76.52;98320.53;5008691;27;96792;-71
2020/12/04 07:10:40;;;;;;;0.77;0.38;;;5.00;93.00;;;8.58;76.23;98325.13;5004766;27;96927;-71
2020/12/04 07:13:08;;;;;;;0.98;0.98;;;5.00;93.00;;;8.56;76.80;98322.03;4986687;28;97904;-71
2020/12/04 07:15:39;;;;;;;0.68;0.68;;;5.00;93.00;;;8.49;77.14;98327.97;4990583;28;96678;-72
2020/12/04 07:18:07;;;;;;;1.35;0.95;;;5.00;93.00;;;8.52;76.80;98337.94;5022821;27;97410;-72
2020/12/04 07:20:37;;;;;;;0.43;0.43;;;5.00;93.00;;;8.56;76.74;98328.13;4990825;28;96790;-72
2020/12/04 07:23:08;;;;;;;1.02;0.98;;;5.10;93.00;;;8.51;76.98;98327.59;4991392;28;96788;-72
2020/12/04 07:25:37;;;;;;;0.73;0.57;;;5.10;93.00;;;8.49;77.31;98335.16;5009111;28;96676;-72
2020/12/04 07:28:05;;;;;;;6.50;1.67;;;5.10;93.00;;;8.59;76.91;98343.44;5016067;28;96706;-71
2020/12/04 07:30:34;;;;;;;0.38;0.38;;;5.10;93.00;;;8.59;77.29;98335.44;4989595;28;96593;-72
2020/12/04 07:33:03;;;;;;;0.17;0.17;;;5.10;93.00;;;8.65;76.61;98346.63;4982142;28;97790;-73
2020/12/04 07:35:31;;;;;;;1.25;1.10;;;5.10;93.00;;;8.66;76.93;98343.59;4998670;28;97793;-72
2020/12/04 07:37:59;;;;;;;0.77;0.77;;;5.10;93.00;;;8.71;76.51;98332.66;5012071;27;96812;-72
2020/12/04 07:40:30;;;;;;;0.35;0.35;;;5.20;93.00;;;8.72;76.53;98338.78;4999037;28;96803;-72
2020/12/04 07:42:58;;;;;;;0.68;0.65;;;5.20;93.00;;;8.75;76.19;98341.53;4987658;28;97860;-72
2020/12/04 07:45:25;;;;;;;7.00;1.38;;;5.20;93.00;;;8.74;76.24;98344.53;4993077;28;97698;-72
2020/12/04 07:47:54;;;;;;;1.35;0.80;;;5.20;93.00;;;8.74;76.42;98342.66;4982123;28;96777;-72
2020/12/04 07:50:23;;;;;;;0.38;0.38;;;5.20;92.90;;;8.80;76.49;98337.81;5011687;28;96857;-72
2020/12/04 07:52:55;;;;;;;0.77;0.77;;;5.20;92.90;;;8.80;76.10;98338.59;4987024;28;96799;-72
2020/12/04 07:55:27;;;;;;;0.30;0.30;;;5.20;92.90;;;8.97;75.96;98350.78;4992441;28;98284;-72
2020/12/04 07:58:03;;;;;;;1.65;0.82;;;5.30;92.90;;;9.01;75.61;98360.44;5012827;28;96751;-71
2020/12/04 08:00:32;;;;;;;0.30;0.30;;;5.30;92.90;;;9.08;75.73;98360.56;4988999;28;97000;-72
2020/12/04 08:03:06;;;;;;;0.65;0.65;;;5.30;92.90;;;9.12;75.51;98368.66;5004876;28;97751;-72
2020/12/04 08:05:36;;;;;;;0.85;0.50;;;5.40;92.90;;;9.11;75.76;98373.22;4999446;28;96711;-72
2020/12/04 08:08:06;;;;;;;0.60;0.60;;;5.40;93.20;;;9.13;75.46;98376.31;5014956;27;97288;-71
2020/12/04 08:10:35;;;;;;;0.82;0.82;;;5.40;92.90;;;9.19;75.44;98388.28;4995692;28;96894;-71
2020/12/04 08:13:05;;;;;;;0.20;0.20;;;5.50;92.90;;;9.20;75.59;98383.72;5016308;27;98176;-71
2020/12/04 08:15:33;;;;;;;0.80;0.60;;;5.50;92.80;;;9.21;75.46;98388.72;5010698;28;96850;-71
2020/12/04 08:18:04;;;;;;;1.85;1.23;;;5.50;92.80;;;9.30;75.21;98394.63;4995847;28;97106;-72
2020/12/04 08:20:33;;;;;;;0.73;0.63;;;5.50;92.80;;;9.31;75.43;98390.84;4995735;28;96878;-72
2020/12/04 08:23:02;;;;;;;1.17;1.08;;;5.60;92.80;;;9.34;75.40;98396.25;5008834;28;98428;-71
2020/12/04 08:25:31;;;;;;;0.20;0.20;;;5.60;92.80;;;9.41;75.46;98396.41;4993795;28;97998;-71
2020/12/04 08:28:00;;;;;;;0.95;0.70;;;5.70;92.80;;;9.41;75.50;98406.31;4995010;28;96647;-72
2020/12/04 08:30:34;;;;;;;0.30;0.30;;;5.70;92.80;;;9.45;75.42;98412.50;5014246;28;96766;-71
2020/12/04 08:33:06;;;;;;;1.25;0.85;;;5.80;92.80;;;9.55;75.11;98406.59;5025426;27;97414;-72
2020/12/04 08:35:38;;;;;;;0.80;0.80;;;5.80;92.70;;;9.58;75.00;98403.22;4997060;28;96720;-71
2020/12/04 08:38:08;;;;;;;0.30;0.30;;;5.80;92.70;;;9.58;75.51;98419.28;4988985;28;96929;-71
2020/12/04 08:40:39;;;;;;;0.43;0.30;;;5.90;92.70;;;9.60;75.22;98412.47;4999389;28;96966;-72
2020/12/04 08:43:13;;;;;;;3.40;0.43;;;5.90;92.70;;;9.64;75.58;98417.88;4991575;28;96789;-72
2020/12/04 08:45:44;;;;;;;0.40;0.40;;;5.90;92.60;;;9.69;75.48;98417.59;4989903;28;98135;-71
2020/12/04 08:48:15;;;;;;;0.63;0.63;;;6.00;92.60;;;9.76;75.32;98420.41;4968930;28;96695;-71
2020/12/04 08:50:47;;;;;;;0.68;0.68;;;6.00;92.60;;;9.83;75.37;98410.63;4986349;28;97050;-72
2020/12/04 08:53:18;;;;;;;0.40;0.40;;;6.10;92.60;;;9.91;75.09;98420.34;5019121;27;97511;-72
2020/12/04 08:55:48;;;;;;;0.65;0.65;;;6.10;92.60;;;9.92;75.16;98418.47;5004488;28;97641;-72
2020/12/04 08:58:16;;;;;;;0.65;0.43;;;6.20;92.60;;;9.98;75.14;98425.06;4988193;28;96778;-71
2020/12/04 09:00:48;;;;;;;0.93;0.75;;;6.20;92.50;;;9.97;75.13;98426.94;4985200;28;96675;-72
2020/12/04 09:03:19;;;;;;;0.95;0.82;;;6.30;92.60;;;10.08;75.60;98424.50;5005519;28;97284;-71
2020/12/04 09:05:47;;;;;;;0.52;0.52;;;6.30;92.60;;;10.24;74.65;98431.31;4989193;28;97691;-72
2020/12/04 09:08:15;;;;;;;0.98;0.90;;;6.40;92.60;;;10.37;74.81;98421.22;5025773;27;96810;-72
2020/12/04 09:10:44;;;;;;;1.13;1.10;;;6.50;92.50;;;10.46;74.10;98419.09;5010751;27;96801;-71
2020/12/04 09:13:11;;;;;;;1.35;1.25;;;6.50;92.50;;;10.56;74.16;98408.56;5003644;28;97840;-73
2020/12/04 09:15:39;;;;;;;0.35;0.35;;;6.60;92.50;;;10.72;73.70;98419.16;5005311;27;96823;-73
2020/12/04 09:18:07;;;;;;;0.47;0.47;;;6.70;92.50;;;10.85;73.68;98423.19;4993641;28;97260;-72
2020/12/04 09:20:35;;;;;;;0.25;0.25;;;6.80;92.40;;;10.90;73.67;98421.75;5005316;28;97046;-71
2020/12/04 09:23:04;;;;;;;1.00;0.70;;;6.80;92.30;;;10.88;73.84;98425.16;4985176;28;97950;-72
2020/12/04 09:25:32;;;;;;;0.95;0.80;;;6.90;92.30;;;10.96;73.88;98432.97;4989628;28;97658;-72
2020/12/04 09:28:17;;;;;;;0.82;0.82;;;7.00;92.30;;;10.99;73.93;98429.56;5008425;28;96751;-72
2020/12/04 09:30:44;;;;;;;0.38;0.38;;;7.00;92.20;;;11.01;73.74;98438.00;4996692;28;97192;-72
2020/12/04 09:33:12;;;;;;;0.10;0.10;;;7.10;92.20;;;10.95;74.45;98452.81;4985821;28;97459;-72
2020/12/04 09:35:41;;;;;;;0.20;0.20;;;7.10;92.20;;;11.08;73.62;98436.19;4990571;28;97657;-72
2020/12/04 09:38:09;;;;;;;0.40;0.40;;;7.20;92.20;;;11.20;74.05;98453.97;4993381;28;96964;-72
2020/12/04 09:40:36;;;;;;;1.65;0.82;;;7.20;92.20;;;11.29;74.41;98455.28;5010975;27;97055;-72
2020/12/04 09:43:05;;;;;;;0.50;0.50;;;7.30;92.20;;;11.42;74.24;98445.91;5016893;27;97011;-72
2020/12/04 09:45:34;;;;;;;0.20;0.20;;;7.40;92.20;;;11.63;73.74;98443.50;5003573;28;97222;-72
2020/12/04 09:48:03;;;;;;;0.10;0.10;;;7.50;92.20;;;11.73;72.94;98439.44;4985215;28;97034;-72
2020/12/04 09:50:31;;;;;;;0.40;0.40;;;7.60;92.30;;;11.70;73.69;98454.34;4995250;28;96885;-73
2020/12/04 09:53:00;;;;;;;0.40;0.35;;;7.70;92.00;;;11.66;73.80;98453.50;5000516;28;97752;-72
2020/12/04 09:55:30;;;;;;;1.20;0.73;;;7.70;92.00;;;11.53;74.58;98462.13;4984039;28;98715;-70
2020/12/04 09:57:58;;;;;;;0.30;0.30;;;7.70;92.10;;;11.52;74.00;98463.25;5002827;27;96887;-74
2020/12/04 10:00:26;;;;;;;0.10;0.10;;;7.70;92.10;;;11.74;73.73;98455.19;4990621;28;96823;-73
2020/12/04 10:02:55;;;;;;;0.10;0.10;;;7.70;92.20;;;11.84;74.38;98465.25;4995070;28;96852;-73
2020/12/04 10:05:23;;;;;;;0.10;0.10;;;7.80;92.20;;;12.27;73.33;98478.03;4993443;28;97808;-73
2020/12/04 10:07:51;;;;;;;0.30;0.30;;;8.00;92.20;;;12.75;72.27;98479.69;4991860;28;96924;-73
2020/12/04 10:10:19;;;;;;;0.73;0.73;;;8.20;92.10;;;13.07;71.15;98475.41;4974820;28;96742;-74
2020/12/04 10:12:46;;;;;;;0.47;0.35;;;8.50;91.90;;;13.13;71.31;98469.31;4988902;28;97004;-72
2020/12/04 10:15:14;;;;;;;0.30;0.30;;;8.80;91.60;;;13.08;71.73;98472.34;4989569;28;97608;-71
2020/12/04 10:17:42;;;;;;;0.20;0.20;;;8.90;91.50;;;12.97;72.30;98487.59;4972153;28;96829;-71
2020/12/04 10:20:09;;;;;;;0.40;0.40;;;9.00;91.40;;;13.13;72.00;98485.44;4998656;28;96870;-72
2020/12/04 10:22:37;;;;;;;0.30;0.30;;;9.10;91.40;;;13.19;72.27;98499.28;4994464;28;98390;-71
2020/12/04 10:25:06;;;;;;;0.30;0.30;;;9.10;91.30;;;13.15;72.35;98498.50;4985193;28;97568;-71
2020/12/04 10:27:34;;;;;;;0.28;0.28;;;9.10;91.30;;;13.12;72.55;98500.03;5001404;28;96813;-72
2020/12/04 10:30:06;;;;;;;3.40;0.30;;;9.10;91.30;;;12.83;73.46;98500.91;5016538;27;97318;-72
2020/12/04 10:32:33;;;;;;;0.38;0.38;;;9.10;91.40;;;12.67;73.72;98511.09;5006477;28;96999;-71
2020/12/04 10:35:04;;;;;;;0.20;0.20;;;9.00;91.40;;;12.67;74.41;98494.97;4984713;28;97741;-70
2020/12/04 10:37:31;;;;;;;0.57;0.52;;;9.00;91.50;;;12.62;74.20;98497.25;4968022;28;96957;-71
2020/12/04 10:39:59;;;;;;;0.35;0.35;;;8.90;91.60;;;12.73;74.07;98514.22;5010005;28;96809;-71
2020/12/04 10:42:31;;;;;;;0.38;0.38;;;9.00;91.70;;;12.75;73.76;98501.19;5005208;28;98019;-70